Time;durP1;ratioP1;P1;durP2;ratioP2;P2;SDS_P1;SDS_P2;PMS_P1;PMS_P2;Temp;Humidity;BMP_temperature;BMP_pressure;BME280_temperature;BME280_humidity;BME280_pressure;Samples;Min_cycle;Max_cycle;Signal;HPM_P1;HPM_P2
2023/01/11 00:00:03;;;;;;;;;;;19.40;44.20;;;;;;5061243;28;19924;-68
2023/01/11 00:02:31;;;;;;;;;;;19.40;44.30;;;;;;5060911;28;19973;-68
2023/01/11 00:04:58;;;;;;;;;;;19.40;44.30;;;;;;5065919;28;19927;-68
2023/01/11 00:07:25;;;;;;;;;;;19.40;44.30;;;;;;5071821;28;19928;-68
2023/01/11 00:09:51;;;;;;;;;;;19.40;44.30;;;;;;5054082;28;20351;-68
2023/01/11 00:12:18;;;;;;;;;;;19.40;44.30;;;;;;5051172;28;20359;-68
2023/01/11 00:14:45;;;;;;;;;;;19.40;44.30;;;;;;5070735;28;20355;-68
2023/01/11 00:17:13;;;;;;;;;;;19.40;44.30;;;;;;5070625;28;19970;-68
2023/01/11 00:19:40;;;;;;;;;;;19.40;44.30;;;;;;5061565;28;19921;-68
2023/01/11 00:22:07;;;;;;;;;;;19.40;44.30;;;;;;5067332;28;19920;-68
2023/01/11 00:24:33;;;;;;;;;;;19.40;44.30;;;;;;5052753;28;19928;-67
2023/01/11 00:27:00;;;;;;;;;;;19.40;44.30;;;;;;5053166;28;20285;-67
2023/01/11 00:29:27;;;;;;;;;;;19.40;44.30;;;;;;5048537;28;19920;-67
2023/01/11 00:31:53;;;;;;;;;;;19.40;44.30;;;;;;5053656;28;19940;-67
2023/01/11 00:34:22;;;;;;;;;;;19.40;44.30;;;;;;5057131;28;19927;-68
2023/01/11 00:36:49;;;;;;;;;;;19.40;44.30;;;;;;5069932;28;19921;-68
2023/01/11 00:39:15;;;;;;;;;;;19.40;44.30;;;;;;5069597;28;19920;-68
2023/01/11 00:49:58;;;;;;;;;;;19.40;44.30;;;;;;5061548;28;20015;-68
2023/01/11 00:52:26;;;;;;;;;;;19.40;44.30;;;;;;5070321;28;19921;-69
2023/01/11 00:54:53;;;;;;;;;;;19.40;44.30;;;;;;5060359;28;19935;-68
2023/01/11 00:57:20;;;;;;;;;;;19.40;44.30;;;;;;5069181;28;19956;-67
2023/01/11 00:59:47;;;;;;;;;;;19.40;44.30;;;;;;5058429;28;19925;-68
2023/01/11 01:02:14;;;;;;;;;;;19.40;44.30;;;;;;5061956;28;19932;-68
2023/01/11 01:04:41;;;;;;;;;;;19.40;44.30;;;;;;5056833;28;20378;-68
2023/01/11 01:07:10;;;;;;;;;;;19.40;44.30;;;;;;5054285;28;19928;-68
2023/01/11 01:09:37;;;;;;;;;;;19.40;44.30;;;;;;5074511;28;20007;-67
2023/01/11 01:12:05;;;;;;;;;;;19.40;44.30;;;;;;5068246;28;19924;-68
2023/01/11 01:14:32;;;;;;;;;;;19.40;44.30;;;;;;5058472;28;19971;-67
2023/01/11 01:16:59;;;;;;;;;;;19.40;44.30;;;;;;5054355;28;19965;-69
2023/01/11 01:19:26;;;;;;;;;;;19.40;44.30;;;;;;5059704;28;20282;-68
2023/01/11 01:21:53;;;;;;;;;;;19.40;44.30;;;;;;5055769;28;19928;-66
2023/01/11 01:24:21;;;;;;;;;;;19.40;44.30;;;;;;5057757;28;19936;-67
2023/01/11 01:26:48;;;;;;;;;;;19.40;44.30;;;;;;5072866;28;19920;-67
2023/01/11 01:29:15;;;;;;;;;;;19.40;44.30;;;;;;5072670;28;20359;-67
2023/01/11 01:31:41;;;;;;;;;;;19.40;44.30;;;;;;5059357;28;19928;-66
2023/01/11 01:34:09;;;;;;;;;;;19.40;44.30;;;;;;5046362;28;19925;-68
2023/01/11 01:36:35;;;;;;;;;;;19.40;44.30;;;;;;5055725;28;19920;-67
2023/01/11 01:39:03;;;;;;;;;;;19.40;44.30;;;;;;5055635;28;19924;-68
2023/01/11 01:41:31;;;;;;;;;;;19.40;44.30;;;;;;5071652;28;19928;-66
2023/01/11 01:43:58;;;;;;;;;;;19.40;44.30;;;;;;5074072;28;19920;-67
2023/01/11 01:46:26;;;;;;;;;;;19.40;44.30;;;;;;5056261;28;20404;-68
2023/01/11 01:48:53;;;;;;;;;;;19.40;44.30;;;;;;5074058;28;19920;-68
2023/01/11 01:51:21;;;;;;;;;;;19.40;44.30;;;;;;5053957;28;20396;-68
2023/01/11 01:53:48;;;;;;;;;;;19.40;44.30;;;;;;5056519;28;20154;-67
2023/01/11 01:56:15;;;;;;;;;;;19.40;44.40;;;;;;5060355;28;19920;-68
2023/01/11 01:58:44;;;;;;;;;;;19.40;44.40;;;;;;5056068;28;19962;-67
2023/01/11 02:03:56;;;;;;;;;;;19.30;44.30;;;;;;5055268;28;19959;-67
2023/01/11 02:06:23;;;;;;;;;;;19.40;44.40;;;;;;5072634;28;19920;-67
2023/01/11 02:08:52;;;;;;;;;;;19.40;44.40;;;;;;5057121;28;19921;-68
2023/01/11 02:14:02;;;;;;;;;;;19.40;44.40;;;;;;5071552;28;20405;-68
2023/01/11 02:16:29;;;;;;;;;;;19.40;44.40;;;;;;5055772;28;19921;-67
2023/01/11 02:18:56;;;;;;;;;;;19.40;44.40;;;;;;5055439;28;19966;-68
2023/01/11 02:21:23;;;;;;;;;;;19.40;44.40;;;;;;5053394;28;19932;-67
2023/01/11 02:24:01;;;;;;;;;;;19.30;44.30;;;;;;5045688;28;19928;-68
2023/01/11 02:26:41;;;;;;;;;;;19.40;44.40;;;;;;5071003;28;19921;-68
2023/01/11 02:29:10;;;;;;;;;;;19.30;44.30;;;;;;5055216;28;19921;-67
2023/01/11 02:31:38;;;;;;;;;;;19.40;44.40;;;;;;5072587;28;19921;-67
2023/01/11 02:34:11;;;;;;;;;;;19.40;44.40;;;;;;5073324;28;19925;-67
2023/01/11 02:36:43;;;;;;;;;;;19.40;44.40;;;;;;5071412;28;20373;-68
2023/01/11 02:39:13;;;;;;;;;;;19.40;44.40;;;;;;5070632;28;19933;-68
2023/01/11 02:47:08;;;;;;;;;;;19.30;44.90;;;;;;5054739;28;19920;-68
2023/01/11 02:49:35;;;;;;;;;;;19.40;44.40;;;;;;5054546;28;19929;-68
2023/01/11 02:52:03;;;;;;;;;;;19.30;44.30;;;;;;5053882;28;19921;-67
2023/01/11 02:54:30;;;;;;;;;;;19.30;44.30;;;;;;5053589;28;19921;-66
2023/01/11 02:56:57;;;;;;;;;;;19.30;44.30;;;;;;5053830;28;19921;-67
2023/01/11 02:59:29;;;;;;;;;;;19.30;44.30;;;;;;5054416;28;19929;-66
2023/01/11 03:01:56;;;;;;;;;;;19.30;44.40;;;;;;5043844;28;20019;-68
2023/01/11 03:04:23;;;;;;;;;;;19.30;44.40;;;;;;5054562;28;19924;-67
2023/01/11 03:06:51;;;;;;;;;;;19.30;44.40;;;;;;5052737;28;19967;-67
2023/01/11 03:09:19;;;;;;;;;;;19.30;44.40;;;;;;5034610;28;20405;-68
2023/01/11 03:14:44;;;;;;;;;;;19.30;44.40;;;;;;5052893;28;19927;-68
2023/01/11 03:17:13;;;;;;;;;;;19.30;44.40;;;;;;5054439;28;19988;-68
2023/01/11 03:19:40;;;;;;;;;;;19.30;44.40;;;;;;5072197;28;19989;-68
2023/01/11 03:22:08;;;;;;;;;;;19.30;44.40;;;;;;5053324;28;19982;-68
2023/01/11 03:24:38;;;;;;;;;;;19.30;44.40;;;;;;5053932;28;19966;-67
2023/01/11 03:27:07;;;;;;;;;;;19.30;44.40;;;;;;5070356;28;19974;-68
2023/01/11 03:29:35;;;;;;;;;;;19.40;44.50;;;;;;5043257;28;19925;-68
2023/01/11 03:32:08;;;;;;;;;;;19.30;44.40;;;;;;5053458;28;19932;-68
2023/01/11 03:34:36;;;;;;;;;;;19.30;44.40;;;;;;5053952;28;19928;-68
2023/01/11 03:37:04;;;;;;;;;;;19.30;44.40;;;;;;5087476;28;19921;-68
2023/01/11 03:39:31;;;;;;;;;;;19.30;44.50;;;;;;5059467;28;19976;-67
2023/01/11 03:41:58;;;;;;;;;;;19.30;44.50;;;;;;5057931;28;19974;-66
2023/01/11 03:44:25;;;;;;;;;;;19.30;45.00;;;;;;5048180;28;20331;-67
2023/01/11 03:46:53;;;;;;;;;;;19.30;44.40;;;;;;5068314;28;19924;-67
2023/01/11 03:49:23;;;;;;;;;;;19.30;44.50;;;;;;5068707;28;19921;-67
2023/01/11 03:51:50;;;;;;;;;;;19.30;44.50;;;;;;5053002;28;19943;-68
2023/01/11 03:54:17;;;;;;;;;;;19.30;44.50;;;;;;5053510;28;19920;-68
2023/01/11 03:56:45;;;;;;;;;;;19.30;44.40;;;;;;5071250;28;20461;-67
2023/01/11 03:59:12;;;;;;;;;;;19.30;44.40;;;;;;5070685;28;19924;-66
2023/01/11 04:01:39;;;;;;;;;;;19.30;44.40;;;;;;5052238;28;19951;-68
2023/01/11 04:04:06;;;;;;;;;;;19.30;44.50;;;;;;5060965;28;19928;-67
2023/01/11 04:06:34;;;;;;;;;;;19.30;44.50;;;;;;5054793;28;19970;-67
2023/01/11 04:09:01;;;;;;;;;;;19.30;44.50;;;;;;5053296;28;20002;-68
2023/01/11 04:11:27;;;;;;;;;;;19.30;44.50;;;;;;5069858;28;19974;-68
2023/01/11 04:13:54;;;;;;;;;;;19.30;44.50;;;;;;5053454;28;20266;-68
2023/01/11 04:16:21;;;;;;;;;;;19.30;44.40;;;;;;5053553;28;19920;-68
2023/01/11 04:18:48;;;;;;;;;;;19.30;44.40;;;;;;5050033;28;19974;-68
2023/01/11 04:21:14;;;;;;;;;;;19.30;44.50;;;;;;5061208;28;19924;-68
2023/01/11 04:23:42;;;;;;;;;;;19.30;44.50;;;;;;5051252;28;19925;-68
2023/01/11 04:26:09;;;;;;;;;;;19.30;44.40;;;;;;5052953;28;19921;-68
2023/01/11 04:28:36;;;;;;;;;;;19.30;44.50;;;;;;5074016;28;19924;-66
2023/01/11 04:31:03;;;;;;;;;;;19.30;44.50;;;;;;5061044;28;20412;-67
2023/01/11 04:33:30;;;;;;;;;;;19.40;44.60;;;;;;5062186;28;19932;-68
2023/01/11 04:35:56;;;;;;;;;;;19.30;44.50;;;;;;5062142;28;19998;-68
2023/01/11 04:38:25;;;;;;;;;;;19.30;44.50;;;;;;5086728;28;19924;-68
2023/01/11 04:42:17;;;;;;;;;;;19.30;44.50;;;;;;5063944;28;19925;-68
2023/01/11 04:43:39;;;;;;;;;;;19.30;44.50;;;;;;5082636;28;19959;-68
2023/01/11 04:46:06;;;;;;;;;;;19.30;44.60;;;;;;5086015;28;20025;-68
2023/01/11 04:48:33;;;;;;;;;;;19.30;44.60;;;;;;5065392;28;19928;-67
2023/01/11 04:51:00;;;;;;;;;;;19.40;44.60;;;;;;5062694;28;19931;-67
2023/01/11 04:53:26;;;;;;;;;;;19.30;44.60;;;;;;5066178;28;19928;-68
2023/01/11 04:55:55;;;;;;;;;;;19.40;44.70;;;;;;5079746;28;19943;-68
2023/01/11 04:58:22;;;;;;;;;;;19.30;44.60;;;;;;5083689;28;19935;-68
2023/01/11 05:00:48;;;;;;;;;;;19.30;44.60;;;;;;5063994;28;19974;-68
2023/01/11 05:03:15;;;;;;;;;;;19.30;44.60;;;;;;5067434;28;20038;-67
2023/01/11 05:05:42;;;;;;;;;;;19.40;44.70;;;;;;5064908;28;20005;-67
2023/01/11 05:08:09;;;;;;;;;;;19.30;44.60;;;;;;5064915;28;19946;-68
2023/01/11 05:10:35;;;;;;;;;;;19.30;44.60;;;;;;5061471;28;19932;-67
2023/01/11 05:13:04;;;;;;;;;;;19.30;44.60;;;;;;5063690;28;20461;-68
2023/01/11 05:15:31;;;;;;;;;;;19.30;44.60;;;;;;5066163;28;19927;-69
2023/01/11 05:17:57;;;;;;;;;;;19.30;44.60;;;;;;5082953;28;19978;-68
2023/01/11 05:20:24;;;;;;;;;;;19.40;44.70;;;;;;5067462;28;19931;-68
2023/01/11 05:22:51;;;;;;;;;;;19.30;45.20;;;;;;5081823;28;20618;-67
2023/01/11 05:25:18;;;;;;;;;;;19.30;44.60;;;;;;5082735;28;19935;-67
2023/01/11 05:27:44;;;;;;;;;;;19.40;44.70;;;;;;5066193;28;19990;-68
2023/01/11 05:30:14;;;;;;;;;;;19.30;44.70;;;;;;5082514;28;20010;-69
2023/01/11 05:32:41;;;;;;;;;;;19.30;44.70;;;;;;5066382;28;19924;-67
2023/01/11 05:35:10;;;;;;;;;;;19.40;44.80;;;;;;5064553;28;19925;-68
2023/01/11 05:37:37;;;;;;;;;;;19.30;44.70;;;;;;5064908;28;19927;-67
2023/01/11 05:40:04;;;;;;;;;;;19.30;44.70;;;;;;5066457;28;19924;-68
2023/01/11 05:42:30;;;;;;;;;;;19.30;44.70;;;;;;5061748;28;19924;-67
2023/01/11 05:47:43;;;;;;;;;;;19.40;44.80;;;;;;5063474;28;20069;-68
2023/01/11 05:50:10;;;;;;;;;;;19.30;44.70;;;;;;5064920;28;19986;-67
2023/01/11 05:52:37;;;;;;;;;;;19.30;44.70;;;;;;5061523;28;20324;-67
2023/01/11 05:55:04;;;;;;;;;;;19.30;44.70;;;;;;5083712;28;19966;-68
2023/01/11 05:57:30;;;;;;;;;;;19.40;44.80;;;;;;5060000;28;19924;-68
2023/01/11 05:59:57;;;;;;;;;;;19.40;44.80;;;;;;5064641;28;19933;-68
2023/01/11 06:02:24;;;;;;;;;;;19.30;44.70;;;;;;5065009;28;19924;-68
2023/01/11 06:04:52;;;;;;;;;;;19.40;44.80;;;;;;5063899;28;19973;-67
2023/01/11 06:07:19;;;;;;;;;;;19.40;44.80;;;;;;5064799;28;19977;-68
2023/01/11 06:09:46;;;;;;;;;;;19.30;44.80;;;;;;5066274;28;19928;-68
2023/01/11 06:12:13;;;;;;;;;;;19.40;44.80;;;;;;5061736;28;19920;-67
2023/01/11 06:14:39;;;;;;;;;;;19.30;44.80;;;;;;5078886;28;19970;-67
2023/01/11 06:17:06;;;;;;;;;;;19.30;44.80;;;;;;5064702;28;19929;-68
2023/01/11 06:19:33;;;;;;;;;;;19.30;44.80;;;;;;5065086;28;19935;-68
2023/01/11 06:22:01;;;;;;;;;;;19.30;44.80;;;;;;5063453;28;19974;-68
2023/01/11 06:24:28;;;;;;;;;;;19.30;44.80;;;;;;5063362;28;19924;-67
2023/01/11 06:26:55;;;;;;;;;;;19.30;44.80;;;;;;5065608;28;19974;-68
2023/01/11 06:29:22;;;;;;;;;;;19.30;44.80;;;;;;5062316;28;19933;-67
2023/01/11 06:31:49;;;;;;;;;;;19.30;44.80;;;;;;5065598;28;19954;-68
2023/01/11 06:34:15;;;;;;;;;;;19.30;44.80;;;;;;5081003;28;19991;-67
2023/01/11 06:36:42;;;;;;;;;;;19.30;44.80;;;;;;5064912;28;19977;-68
2023/01/11 06:39:11;;;;;;;;;;;19.30;44.80;;;;;;5063384;28;19924;-68
2023/01/11 06:41:37;;;;;;;;;;;19.30;44.80;;;;;;5061575;28;19927;-68
2023/01/11 06:44:04;;;;;;;;;;;19.30;44.80;;;;;;5064641;28;19920;-67
2023/01/11 06:46:31;;;;;;;;;;;19.30;44.80;;;;;;5057635;28;19939;-68
2023/01/11 06:48:58;;;;;;;;;;;19.40;44.90;;;;;;5065450;28;19935;-67
2023/01/11 06:51:25;;;;;;;;;;;19.30;44.80;;;;;;5061055;28;19938;-66
2023/01/11 06:53:51;;;;;;;;;;;19.40;44.90;;;;;;5060152;28;19928;-68
2023/01/11 06:56:20;;;;;;;;;;;19.40;44.90;;;;;;5080987;28;20429;-68
2023/01/11 06:58:46;;;;;;;;;;;19.40;44.90;;;;;;5079679;28;20282;-66
2023/01/11 07:01:13;;;;;;;;;;;19.40;44.90;;;;;;5078863;28;19925;-68
2023/01/11 07:03:40;;;;;;;;;;;19.40;45.00;;;;;;5062975;28;19933;-68
2023/01/11 07:06:07;;;;;;;;;;;19.40;45.00;;;;;;5056263;28;20074;-68
2023/01/11 07:08:33;;;;;;;;;;;19.30;44.90;;;;;;5057475;28;20003;-69
2023/01/11 07:11:00;;;;;;;;;;;19.40;45.00;;;;;;5055636;28;19931;-69
2023/01/11 07:13:28;;;;;;;;;;;19.40;44.90;;;;;;5080134;28;19920;-66
2023/01/11 07:15:56;;;;;;;;;;;19.30;44.90;;;;;;5086014;28;19932;-67
2023/01/11 07:18:23;;;;;;;;;;;19.30;44.90;;;;;;5079184;28;19924;-68
2023/01/11 07:20:52;;;;;;;;;;;19.40;45.00;;;;;;5065194;28;19924;-68
2023/01/11 07:23:19;;;;;;;;;;;19.40;45.00;;;;;;5063677;28;19928;-67
2023/01/11 07:25:45;;;;;;;;;;;19.40;45.00;;;;;;5064413;28;20030;-68
2023/01/11 07:28:12;;;;;;;;;;;19.40;45.00;;;;;;5062558;28;19927;-66
2023/01/11 07:30:40;;;;;;;;;;;19.40;45.00;;;;;;5060555;28;19928;-67
2023/01/11 07:33:09;;;;;;;;;;;19.40;45.00;;;;;;5079182;28;19966;-67
2023/01/11 07:35:35;;;;;;;;;;;19.40;45.00;;;;;;5063505;28;19925;-69
2023/01/11 07:38:06;;;;;;;;;;;19.40;45.00;;;;;;5057873;28;20370;-68
2023/01/11 07:40:35;;;;;;;;;;;19.40;45.00;;;;;;5081821;28;19967;-68
2023/01/11 07:43:18;;;;;;;;;;;19.40;45.10;;;;;;5059664;28;19952;-68
2023/01/11 07:45:47;;;;;;;;;;;19.40;45.00;;;;;;5072840;28;19985;-68
2023/01/11 07:48:14;;;;;;;;;;;19.40;45.10;;;;;;5062349;28;19973;-68
2023/01/11 07:50:41;;;;;;;;;;;19.40;45.10;;;;;;5082596;28;19921;-68
2023/01/11 07:53:08;;;;;;;;;;;19.40;45.10;;;;;;5057235;28;19931;-69
2023/01/11 07:55:34;;;;;;;;;;;19.40;45.10;;;;;;5071460;28;19928;-68
2023/01/11 07:58:01;;;;;;;;;;;19.40;45.10;;;;;;5049829;28;19940;-69
2023/01/11 08:00:28;;;;;;;;;;;19.40;45.00;;;;;;5043945;28;20007;-68
2023/01/11 08:02:56;;;;;;;;;;;19.40;45.00;;;;;;5058145;28;19948;-69
2023/01/11 08:05:23;;;;;;;;;;;19.40;45.00;;;;;;5030512;28;19921;-68
2023/01/11 08:07:50;;;;;;;;;;;19.40;45.00;;;;;;5036993;28;19955;-68
2023/01/11 08:10:17;;;;;;;;;;;19.40;45.00;;;;;;5072166;28;19921;-68
2023/01/11 08:15:28;;;;;;;;;;;19.40;45.00;;;;;;5027205;28;19925;-66
2023/01/11 08:17:55;;;;;;;;;;;19.40;45.00;;;;;;5032649;28;20370;-67
2023/01/11 08:20:23;;;;;;;;;;;19.40;45.00;;;;;;5054970;28;19928;-66
2023/01/11 08:22:50;;;;;;;;;;;19.40;45.00;;;;;;5037831;28;19929;-68
2023/01/11 08:25:17;;;;;;;;;;;19.40;45.00;;;;;;5052628;28;19929;-65
2023/01/11 08:27:44;;;;;;;;;;;19.40;45.00;;;;;;5058692;28;19962;-65
2023/01/11 08:30:11;;;;;;;;;;;19.40;45.00;;;;;;5040941;28;20003;-68
2023/01/11 08:32:38;;;;;;;;;;;19.40;45.00;;;;;;5052810;28;19932;-67
2023/01/11 08:35:05;;;;;;;;;;;19.40;45.00;;;;;;5034172;28;19928;-67
2023/01/11 08:37:33;;;;;;;;;;;19.40;45.00;;;;;;5053323;28;20021;-68
2023/01/11 08:39:59;;;;;;;;;;;19.40;45.00;;;;;;5051968;28;19951;-70
2023/01/11 08:42:26;;;;;;;;;;;19.40;45.10;;;;;;5067665;28;19959;-70
2023/01/11 08:44:54;;;;;;;;;;;19.40;45.00;;;;;;5078433;28;19920;-68
2023/01/11 08:47:21;;;;;;;;;;;19.50;45.10;;;;;;5058256;28;19978;-71
2023/01/11 08:49:47;;;;;;;;;;;19.50;45.10;;;;;;5077436;28;20351;-68
2023/01/11 08:52:14;;;;;;;;;;;19.50;45.10;;;;;;5056101;28;19974;-67
2023/01/11 08:54:42;;;;;;;;;;;19.50;45.10;;;;;;5058446;28;19954;-69
2023/01/11 08:57:09;;;;;;;;;;;19.50;45.20;;;;;;5060649;28;19924;-69
2023/01/11 08:59:36;;;;;;;;;;;19.50;45.20;;;;;;5055706;28;19959;-66
2023/01/11 09:02:04;;;;;;;;;;;19.50;45.20;;;;;;5057228;28;19928;-71
2023/01/11 09:04:32;;;;;;;;;;;19.50;45.20;;;;;;5055722;28;20319;-68
2023/01/11 09:06:59;;;;;;;;;;;19.50;45.20;;;;;;5058998;28;20297;-69
2023/01/11 09:09:26;;;;;;;;;;;19.50;45.20;;;;;;5077964;28;19920;-67
2023/01/11 09:11:55;;;;;;;;;;;19.50;45.20;;;;;;5057653;28;19921;-68
2023/01/11 09:14:22;;;;;;;;;;;19.50;45.20;;;;;;5059057;28;19920;-67
2023/01/11 09:16:49;;;;;;;;;;;19.50;45.20;;;;;;5058488;28;19928;-67
2023/01/11 09:19:16;;;;;;;;;;;19.50;45.20;;;;;;5059920;28;19924;-69
2023/01/11 09:21:43;;;;;;;;;;;19.50;45.20;;;;;;5075746;28;19985;-70
2023/01/11 09:24:10;;;;;;;;;;;19.50;45.30;;;;;;5064230;28;19969;-69
2023/01/11 09:26:37;;;;;;;;;;;19.50;45.30;;;;;;5065122;28;19978;-68
2023/01/11 09:29:05;;;;;;;;;;;19.50;45.20;;;;;;5058445;28;19925;-69
2023/01/11 09:31:32;;;;;;;;;;;19.60;45.40;;;;;;5062569;28;19961;-68
2023/01/11 09:33:59;;;;;;;;;;;19.60;45.40;;;;;;5065179;28;19963;-68
2023/01/11 09:36:26;;;;;;;;;;;19.60;45.30;;;;;;5062494;28;19924;-68
2023/01/11 09:38:56;;;;;;;;;;;19.60;45.30;;;;;;5076196;28;19928;-68
2023/01/11 09:41:26;;;;;;;;;;;19.60;45.40;;;;;;5054199;28;19939;-68
2023/01/11 09:43:55;;;;;;;;;;;19.60;45.30;;;;;;5059633;28;20370;-69
2023/01/11 09:46:23;;;;;;;;;;;19.60;45.40;;;;;;5060737;28;19920;-66
2023/01/11 09:48:51;;;;;;;;;;;19.60;45.30;;;;;;5058760;28;19925;-67
2023/01/11 09:51:19;;;;;;;;;;;19.60;45.30;;;;;;5071437;28;19920;-69
2023/01/11 09:53:49;;;;;;;;;;;19.60;45.30;;;;;;5076427;28;19941;-69
2023/01/11 09:56:18;;;;;;;;;;;19.60;45.40;;;;;;5057669;28;19924;-72
2023/01/11 09:58:56;;;;;;;;;;;19.60;45.40;;;;;;5053596;28;19921;-66
2023/01/11 10:01:28;;;;;;;;;;;19.60;45.40;;;;;;5061396;28;19967;-67
2023/01/11 10:04:31;;;;;;;;;;;19.60;45.40;;;;;;5071781;28;19925;-68
2023/01/11 10:07:14;;;;;;;;;;;19.60;45.40;;;;;;4977144;28;19949;-68
2023/01/11 10:09:41;;;;;;;;;;;19.60;45.40;;;;;;5045629;28;19939;-68
2023/01/11 10:12:11;;;;;;;;;;;19.60;45.40;;;;;;5056924;28;19924;-68
2023/01/11 10:14:41;;;;;;;;;;;19.60;45.30;;;;;;5062244;28;19982;-68
2023/01/11 10:17:12;;;;;;;;;;;19.60;45.40;;;;;;5055366;28;19927;-68
2023/01/11 10:19:40;;;;;;;;;;;19.60;45.40;;;;;;5073020;28;19936;-67
2023/01/11 10:22:09;;;;;;;;;;;19.70;45.40;;;;;;5057707;28;20027;-71
2023/01/11 10:24:37;;;;;;;;;;;19.60;45.40;;;;;;5058530;28;20015;-67
2023/01/11 10:27:08;;;;;;;;;;;19.60;45.40;;;;;;5055922;28;19940;-72
2023/01/11 10:29:45;;;;;;;;;;;19.70;45.40;;;;;;5077109;28;19924;-68
2023/01/11 10:32:32;;;;;;;;;;;19.70;45.50;;;;;;5057998;28;19924;-67
2023/01/11 10:35:16;;;;;;;;;;;19.70;45.40;;;;;;5060388;28;19958;-68
2023/01/11 10:38:09;;;;;;;;;;;19.70;45.40;;;;;;5071139;28;19924;-69
2023/01/11 10:41:01;;;;;;;;;;;19.70;45.40;;;;;;5057619;28;19920;-70
2023/01/11 10:43:25;;;;;;;;;;;19.70;45.40;;;;;;5061532;28;19920;-73
2023/01/11 10:45:52;;;;;;;;;;;19.70;45.40;;;;;;5051980;28;19968;-72
2023/01/11 10:48:22;;;;;;;;;;;19.70;45.40;;;;;;5058312;28;19931;-69
2023/01/11 10:50:51;;;;;;;;;;;19.70;45.40;;;;;;5056831;28;19920;-64
2023/01/11 10:53:19;;;;;;;;;;;19.70;45.40;;;;;;5076546;28;19924;-64
2023/01/11 10:55:47;;;;;;;;;;;19.70;45.50;;;;;;5057754;28;19932;-64
2023/01/11 10:58:17;;;;;;;;;;;19.70;45.50;;;;;;5053399;28;19924;-69
2023/01/11 11:00:46;;;;;;;;;;;19.70;45.50;;;;;;5059678;28;19921;-65
2023/01/11 11:03:26;;;;;;;;;;;19.70;45.50;;;;;;5074426;28;19924;-63
2023/01/11 11:05:53;;;;;;;;;;;19.60;45.40;;;;;;5052192;28;19924;-67
2023/01/11 11:08:25;;;;;;;;;;;19.60;45.40;;;;;;5051143;28;19968;-63
2023/01/11 11:10:53;;;;;;;;;;;19.60;45.40;;;;;;5059704;28;19959;-63
2023/01/11 11:13:21;;;;;;;;;;;19.60;45.40;;;;;;5077216;28;19925;-64
2023/01/11 11:15:49;;;;;;;;;;;19.60;45.40;;;;;;5050778;28;20351;-63
2023/01/11 11:18:16;;;;;;;;;;;19.50;45.30;;;;;;5073940;28;20023;-65
2023/01/11 11:20:45;;;;;;;;;;;19.50;45.30;;;;;;5061055;28;19925;-65
2023/01/11 11:23:13;;;;;;;;;;;19.50;45.30;;;;;;5051452;28;19920;-64
2023/01/11 11:25:39;;;;;;;;;;;19.50;45.30;;;;;;5059766;28;19924;-66
2023/01/11 11:28:06;;;;;;;;;;;19.50;45.30;;;;;;5071904;28;19920;-63
2023/01/11 11:30:33;;;;;;;;;;;19.50;45.30;;;;;;5078725;28;19932;-62
2023/01/11 11:33:01;;;;;;;;;;;19.50;45.30;;;;;;5057454;28;19924;-63
2023/01/11 11:35:31;;;;;;;;;;;19.40;45.20;;;;;;5073999;28;19920;-64
2023/01/11 11:37:59;;;;;;;;;;;19.40;45.30;;;;;;5056294;28;20424;-64
2023/01/11 11:40:30;;;;;;;;;;;19.40;45.20;;;;;;5060947;28;19973;-64
2023/01/11 11:43:08;;;;;;;;;;;19.40;45.20;;;;;;5053825;28;19963;-65
2023/01/11 11:45:35;;;;;;;;;;;19.40;45.20;;;;;;5071213;28;20245;-63
2023/01/11 11:48:02;;;;;;;;;;;19.40;45.20;;;;;;5059005;28;19932;-63
2023/01/11 11:50:29;;;;;;;;;;;19.40;45.20;;;;;;5059143;28;19924;-63
2023/01/11 11:52:59;;;;;;;;;;;19.40;45.20;;;;;;5061758;28;19920;-63
2023/01/11 11:55:29;;;;;;;;;;;19.40;45.20;;;;;;5061316;28;19932;-64
2023/01/11 11:57:56;;;;;;;;;;;19.40;45.20;;;;;;5037855;28;20015;-62
2023/01/11 12:00:23;;;;;;;;;;;19.40;45.20;;;;;;5046790;28;19924;-62
2023/01/11 12:02:50;;;;;;;;;;;19.40;45.20;;;;;;5076662;28;19923;-62
2023/01/11 12:05:17;;;;;;;;;;;19.40;45.20;;;;;;5092388;28;19920;-62
2023/01/11 12:07:44;;;;;;;;;;;19.40;45.20;;;;;;5094666;28;19924;-62
2023/01/11 12:10:12;;;;;;;;;;;19.40;45.20;;;;;;5073010;28;20423;-62
2023/01/11 12:12:49;;;;;;;;;;;19.40;45.10;;;;;;5074994;28;19973;-69
2023/01/11 12:15:19;;;;;;;;;;;19.40;45.20;;;;;;5050992;28;19920;-62
2023/01/11 12:17:46;;;;;;;;;;;19.40;45.20;;;;;;5060503;28;20366;-62
2023/01/11 12:20:29;;;;;;;;;;;19.40;45.10;;;;;;5036867;28;20266;-63
2023/01/11 12:23:08;;;;;;;;;;;19.40;45.20;;;;;;5053789;28;20021;-64
2023/01/11 12:25:35;;;;;;;;;;;19.40;45.10;;;;;;5059481;28;19920;-64
2023/01/11 12:28:04;;;;;;;;;;;19.40;45.10;;;;;;5056746;28;19970;-65
2023/01/11 12:30:32;;;;;;;;;;;19.40;45.10;;;;;;5056175;28;19934;-65
2023/01/11 12:33:16;;;;;;;;;;;19.40;45.10;;;;;;5073017;28;19943;-66
2023/01/11 12:35:47;;;;;;;;;;;19.40;45.10;;;;;;5062522;28;19965;-67
2023/01/11 12:38:16;;;;;;;;;;;19.40;45.10;;;;;;5081338;28;19924;-65
2023/01/11 12:40:44;;;;;;;;;;;19.40;45.10;;;;;;5062898;28;19965;-65
2023/01/11 12:43:24;;;;;;;;;;;19.40;45.10;;;;;;5073013;28;19943;-64
2023/01/11 12:45:54;;;;;;;;;;;19.40;45.10;;;;;;5073813;28;19920;-61
2023/01/11 12:48:27;;;;;;;;;;;19.40;45.10;;;;;;5085922;28;19924;-62
2023/01/11 12:51:03;;;;;;;;;;;19.40;45.10;;;;;;5094081;28;19924;-62
2023/01/11 12:53:34;;;;;;;;;;;19.40;45.10;;;;;;5058767;28;19967;-63
2023/01/11 12:56:06;;;;;;;;;;;19.40;45.10;;;;;;5055927;28;19983;-61
2023/01/11 12:58:35;;;;;;;;;;;19.40;45.10;;;;;;5056553;28;19921;-62
2023/01/11 13:01:31;;;;;;;;;;;19.40;45.10;;;;;;5079341;28;19964;-63
2023/01/11 13:04:04;;;;;;;;;;;19.40;45.10;;;;;;4996578;28;19983;-62
2023/01/11 13:06:33;;;;;;;;;;;19.40;45.10;;;;;;5061127;28;20321;-62
2023/01/11 13:09:01;;;;;;;;;;;19.40;45.10;;;;;;5085755;28;20319;-61
2023/01/11 13:11:34;;;;;;;;;;;19.40;45.10;;;;;;5080500;28;19983;-63
2023/01/11 13:14:05;;;;;;;;;;;19.40;45.10;;;;;;5066463;28;19920;-63
2023/01/11 13:16:33;;;;;;;;;;;19.50;45.20;;;;;;5075504;28;20404;-63
2023/01/11 13:19:01;;;;;;;;;;;19.40;45.10;;;;;;5055532;28;19927;-62
2023/01/11 13:21:29;;;;;;;;;;;19.50;45.20;;;;;;5055582;28;19970;-63
2023/01/11 13:23:56;;;;;;;;;;;19.50;45.20;;;;;;5064178;28;19920;-62
2023/01/11 13:26:24;;;;;;;;;;;19.50;45.20;;;;;;5068390;28;19931;-62
2023/01/11 13:28:51;;;;;;;;;;;19.50;45.20;;;;;;5059138;28;19967;-61
2023/01/11 13:31:19;;;;;;;;;;;19.50;45.20;;;;;;5059043;28;19951;-61
2023/01/11 13:33:47;;;;;;;;;;;19.50;45.20;;;;;;5065983;28;19920;-62
2023/01/11 13:36:14;;;;;;;;;;;19.50;45.20;;;;;;5079679;28;19920;-61
2023/01/11 13:38:43;;;;;;;;;;;19.50;45.20;;;;;;5079635;28;19926;-61
2023/01/11 13:41:12;;;;;;;;;;;19.50;45.20;;;;;;5039495;28;19971;-62
2023/01/11 13:43:39;;;;;;;;;;;19.50;45.20;;;;;;5057802;28;20023;-62
2023/01/11 13:46:08;;;;;;;;;;;19.50;45.20;;;;;;5079928;28;20041;-62
2023/01/11 13:48:37;;;;;;;;;;;19.50;45.80;;;;;;5054042;28;19920;-62
2023/01/11 13:51:05;;;;;;;;;;;19.50;45.20;;;;;;5067106;28;20316;-63
2023/01/11 13:53:32;;;;;;;;;;;19.50;45.20;;;;;;5079421;28;19920;-62
2023/01/11 13:56:01;;;;;;;;;;;19.50;45.20;;;;;;5076970;28;20346;-62
2023/01/11 13:58:30;;;;;;;;;;;19.50;45.20;;;;;;5079293;28;19927;-62
2023/01/11 14:00:57;;;;;;;;;;;19.50;45.20;;;;;;5075303;28;20024;-62
2023/01/11 14:03:26;;;;;;;;;;;19.50;45.20;;;;;;5058579;28;19961;-64
2023/01/11 14:05:58;;;;;;;;;;;19.50;45.20;;;;;;5056842;28;19920;-63
2023/01/11 14:08:30;;;;;;;;;;;19.50;45.20;;;;;;5067502;28;20355;-63
2023/01/11 14:10:58;;;;;;;;;;;19.50;45.20;;;;;;5084026;28;19950;-65
2023/01/11 14:16:29;;;;;;;;;;;19.50;45.10;;;;;;5076240;28;20281;-63
2023/01/11 14:18:56;;;;;;;;;;;19.50;45.10;;;;;;5076115;28;19968;-62
2023/01/11 14:21:26;;;;;;;;;;;19.50;45.10;;;;;;5076171;28;19924;-65
2023/01/11 14:23:53;;;;;;;;;;;19.50;45.10;;;;;;5057840;28;19920;-64
2023/01/11 14:26:30;;;;;;;;;;;19.50;45.10;;;;;;5057057;28;19920;-63
2023/01/11 14:29:01;;;;;;;;;;;19.50;45.10;;;;;;5056552;28;19955;-62
2023/01/11 14:31:31;;;;;;;;;;;19.50;45.10;;;;;;5080130;28;19920;-61
2023/01/11 14:34:03;;;;;;;;;;;19.50;45.10;;;;;;5062999;28;20393;-62
2023/01/11 14:36:45;;;;;;;;;;;19.50;45.10;;;;;;5078925;28;19924;-59
2023/01/11 14:39:33;;;;;;;;;;;19.50;45.10;;;;;;5073745;28;19927;-61
2023/01/11 14:42:06;;;;;;;;;;;19.50;45.00;;;;;;5075987;28;19924;-61
2023/01/11 14:44:38;;;;;;;;;;;19.50;45.00;;;;;;5057686;28;19970;-60
2023/01/11 14:47:11;;;;;;;;;;;19.50;45.00;;;;;;5059442;28;19926;-61
2023/01/11 14:49:42;;;;;;;;;;;19.50;45.00;;;;;;5095760;28;19942;-61
2023/01/11 14:52:09;;;;;;;;;;;19.50;45.00;;;;;;5090738;28;19921;-61
2023/01/11 14:54:38;;;;;;;;;;;19.50;45.00;;;;;;5072402;28;19928;-60